createdAt,value
2023-04-16T00:01:05.492Z,19.81
2023-04-16T00:03:34.583Z,19.79
2023-04-16T00:06:02.775Z,19.77
2023-04-16T00:08:30.641Z,19.75
2023-04-16T00:10:58.823Z,19.74
2023-04-16T00:13:28.138Z,19.72
2023-04-16T00:15:56.081Z,19.72
2023-04-16T00:18:24.040Z,19.71
2023-04-16T00:20:52.126Z,19.70
2023-04-16T00:23:20.367Z,19.69
2023-04-16T00:25:48.573Z,19.67
2023-04-16T00:28:16.515Z,19.65
2023-04-16T00:30:44.535Z,19.64
2023-04-16T00:33:12.589Z,19.63
2023-04-16T00:35:40.960Z,19.63
2023-04-16T00:38:10.083Z,19.61
2023-04-16T00:40:38.340Z,19.58
2023-04-16T00:43:06.301Z,19.59
2023-04-16T00:45:34.382Z,19.58
2023-04-16T00:48:02.677Z,19.56
2023-04-16T00:50:31.143Z,19.54
2023-04-16T00:52:59.212Z,19.53
2023-04-16T00:55:27.391Z,19.53
2023-04-16T00:57:55.722Z,19.52
2023-04-16T01:00:24.064Z,19.51
2023-04-16T01:02:53.559Z,19.52
2023-04-16T01:05:21.718Z,19.51
2023-04-16T01:07:50.608Z,19.48
2023-04-16T01:10:18.888Z,19.46
2023-04-16T01:12:47.068Z,19.44
2023-04-16T01:15:15.445Z,19.42
2023-04-16T01:17:46.198Z,19.41
2023-04-16T01:20:14.878Z,19.40
2023-04-16T01:22:43.158Z,19.36
2023-04-16T01:25:14.851Z,19.38
2023-04-16T01:27:42.970Z,19.36
2023-04-16T01:30:11.577Z,19.35
2023-04-16T01:32:48.770Z,19.35
2023-04-16T01:35:18.269Z,19.34
2023-04-16T01:37:46.617Z,19.33
2023-04-16T01:40:14.697Z,19.31
2023-04-16T01:42:42.642Z,19.29
2023-04-16T01:45:11.455Z,19.30
2023-04-16T01:47:39.584Z,19.30
2023-04-16T01:50:08.217Z,19.30
2023-04-16T01:52:37.249Z,19.28
2023-04-16T01:55:06.101Z,19.26
2023-04-16T01:57:34.171Z,19.23
2023-04-16T02:00:03.378Z,19.23
2023-04-16T02:02:32.430Z,19.23
2023-04-16T02:05:01.323Z,19.22
2023-04-16T02:07:31.877Z,19.19
2023-04-16T02:09:59.966Z,19.18
2023-04-16T02:12:29.347Z,19.17
2023-04-16T02:14:57.420Z,19.19
2023-04-16T02:17:27.513Z,19.17
2023-04-16T02:20:08.384Z,19.14
2023-04-16T02:22:38.326Z,19.14
2023-04-16T02:25:07.647Z,19.14
2023-04-16T02:27:36.830Z,19.14
2023-04-16T02:30:19.336Z,19.11
2023-04-16T02:32:47.555Z,19.10
2023-04-16T02:35:16.197Z,19.08
2023-04-16T02:37:44.263Z,19.07
2023-04-16T02:40:12.193Z,19.06
2023-04-16T02:42:40.409Z,19.05
2023-04-16T02:45:09.769Z,19.03
2023-04-16T02:47:38.028Z,19.03
2023-04-16T02:50:07.065Z,19.04
2023-04-16T02:52:35.168Z,19.04
2023-04-16T02:55:03.339Z,19.02
2023-04-16T02:57:31.410Z,19.00
2023-04-16T02:59:59.474Z,18.98
2023-04-16T03:02:27.847Z,18.97
2023-04-16T03:04:56.027Z,18.94
2023-04-16T03:07:24.100Z,18.93
2023-04-16T03:09:52.288Z,18.90
2023-04-16T03:12:20.218Z,18.91
2023-04-16T03:14:48.208Z,18.94
2023-04-16T03:17:16.593Z,18.99
2023-04-16T03:19:44.871Z,19.02
2023-04-16T03:22:13.664Z,19.04
2023-04-16T03:24:41.782Z,19.08
2023-04-16T03:27:09.906Z,19.11
2023-04-16T03:29:38.898Z,19.15
2023-04-16T03:32:07.781Z,19.18
2023-04-16T03:34:36.868Z,19.23
2023-04-16T03:37:06.322Z,19.25
2023-04-16T03:39:34.781Z,19.29
2023-04-16T03:42:03.697Z,19.33
2023-04-16T03:44:31.782Z,19.38
2023-04-16T03:46:59.832Z,19.41
2023-04-16T03:49:28.183Z,19.46
2023-04-16T03:51:56.255Z,19.49
2023-04-16T03:54:24.432Z,19.54
2023-04-16T03:56:57.940Z,19.58
2023-04-16T03:59:26.106Z,19.63
2023-04-16T04:01:54.210Z,19.67
2023-04-16T04:04:23.105Z,19.72
2023-04-16T04:06:51.279Z,19.76
2023-04-16T04:09:19.311Z,19.81
2023-04-16T04:11:47.705Z,19.85
2023-04-16T04:14:15.867Z,19.90
2023-04-16T04:16:44.102Z,19.95
2023-04-16T04:19:12.739Z,19.99
2023-04-16T04:21:41.107Z,20.04
2023-04-16T04:24:10.720Z,20.08
2023-04-16T04:26:38.594Z,20.08
2023-04-16T04:29:07.153Z,20.16
2023-04-16T04:31:36.498Z,20.19
2023-04-16T04:34:04.739Z,20.22
2023-04-16T04:36:33.827Z,20.26
2023-04-16T04:39:02.114Z,20.28
2023-04-16T04:41:30.297Z,20.32
2023-04-16T04:43:58.254Z,20.35
2023-04-16T04:46:26.656Z,20.36
2023-04-16T04:48:55.010Z,20.39
2023-04-16T04:51:23.189Z,20.43
2023-04-16T04:53:51.448Z,20.45
2023-04-16T04:56:19.645Z,20.48
2023-04-16T04:58:47.627Z,20.50
2023-04-16T05:01:15.734Z,20.52
2023-04-16T05:03:44.469Z,20.52
2023-04-16T05:06:12.747Z,20.54
2023-04-16T05:08:40.919Z,20.55
2023-04-16T05:11:08.993Z,20.56
2023-04-16T05:13:37.271Z,20.57
2023-04-16T05:16:06.157Z,20.57
2023-04-16T05:18:34.240Z,20.57
2023-04-16T05:21:02.715Z,20.59
2023-04-16T05:23:30.683Z,20.59
2023-04-16T05:25:58.622Z,20.60
2023-04-16T05:28:26.621Z,20.60
2023-04-16T05:30:54.824Z,20.61
2023-04-16T05:33:22.971Z,20.59
2023-04-16T05:35:51.146Z,20.61
2023-04-16T05:38:19.241Z,20.62
2023-04-16T05:40:47.191Z,20.61
2023-04-16T05:43:15.256Z,20.61
2023-04-16T05:45:43.217Z,20.63
2023-04-16T05:48:11.501Z,20.65
2023-04-16T05:50:39.875Z,20.65
2023-04-16T05:53:08.872Z,20.68
2023-04-16T05:55:39.810Z,20.67
2023-04-16T05:58:07.874Z,20.69
2023-04-16T06:00:36.051Z,20.71
2023-04-16T06:03:04.661Z,20.72
2023-04-16T06:05:32.941Z,20.74
2023-04-16T06:08:01.302Z,20.76
2023-04-16T06:10:29.632Z,20.75
2023-04-16T06:12:57.845Z,20.74
2023-04-16T06:15:26.015Z,20.75
2023-04-16T06:17:54.699Z,20.75
2023-04-16T06:20:22.900Z,20.76
2023-04-16T06:22:50.850Z,20.78
2023-04-16T06:25:18.824Z,20.75
2023-04-16T06:27:46.786Z,20.75
2023-04-16T06:30:15.785Z,20.77
2023-04-16T06:32:44.416Z,20.79
2023-04-16T06:35:12.648Z,20.81
2023-04-16T06:37:40.849Z,20.79
2023-04-16T06:40:09.526Z,20.79
2023-04-16T06:42:37.517Z,20.80
2023-04-16T06:45:06.667Z,20.79
2023-04-16T06:47:34.791Z,20.81
2023-04-16T06:50:02.927Z,20.82
2023-04-16T06:52:31.090Z,20.82
2023-04-16T06:54:59.486Z,20.84
2023-04-16T06:57:27.753Z,20.83
2023-04-16T06:59:55.940Z,20.85
2023-04-16T07:02:24.509Z,20.84
2023-04-16T07:04:52.688Z,20.82
2023-04-16T07:07:20.854Z,20.83
2023-04-16T07:09:48.918Z,20.86
2023-04-16T07:12:17.116Z,20.89
2023-04-16T07:14:45.575Z,20.90
2023-04-16T07:17:13.668Z,20.92
2023-04-16T07:19:41.717Z,20.93
2023-04-16T07:22:09.904Z,20.93
2023-04-16T07:24:37.978Z,20.95
2023-04-16T07:27:06.246Z,20.96
2023-04-16T07:29:34.305Z,20.96
2023-04-16T07:32:02.415Z,20.97
2023-04-16T07:34:30.413Z,20.99
2023-04-16T07:36:58.533Z,21.01
2023-04-16T07:39:26.611Z,21.03
2023-04-16T07:41:54.594Z,21.05
2023-04-16T07:44:22.657Z,21.06
2023-04-16T07:46:50.789Z,21.05
2023-04-16T07:49:18.870Z,21.12
2023-04-16T07:51:47.166Z,21.15
2023-04-16T07:54:15.246Z,21.15
2023-04-16T07:56:43.160Z,21.18
2023-04-16T07:59:21.791Z,21.22
2023-04-16T08:01:52.865Z,21.24
2023-04-16T08:04:25.302Z,21.27
2023-04-16T08:06:54.639Z,21.32
2023-04-16T08:09:23.584Z,21.34
2023-04-16T08:11:51.695Z,21.37
2023-04-16T08:14:19.681Z,21.39
2023-04-16T08:16:47.758Z,21.45
2023-04-16T08:19:15.830Z,21.49
2023-04-16T08:21:44.342Z,21.52
2023-04-16T08:24:12.253Z,21.56
2023-04-16T08:26:40.538Z,21.58
2023-04-16T08:29:08.943Z,21.62
2023-04-16T08:31:37.278Z,21.65
2023-04-16T08:34:05.496Z,21.69
2023-04-16T08:36:33.564Z,21.72
2023-04-16T08:39:01.641Z,21.76
2023-04-16T08:41:33.090Z,21.79
2023-04-16T08:44:01.381Z,21.83
2023-04-16T08:46:29.353Z,21.85
2023-04-16T08:48:57.504Z,21.88
2023-04-16T08:51:27.212Z,21.91
2023-04-16T08:54:00.428Z,21.94
2023-04-16T08:56:28.489Z,21.95
2023-04-16T08:58:56.705Z,21.98
2023-04-16T09:03:58.520Z,22.04
2023-04-16T09:06:27.829Z,22.07
2023-04-16T09:11:29.088Z,22.12
2023-04-16T09:13:57.573Z,22.14
2023-04-16T09:18:58.428Z,22.18
2023-04-16T09:21:26.594Z,22.20
2023-04-16T09:23:54.667Z,22.22
2023-04-16T09:26:22.848Z,22.23
2023-04-16T09:28:53.683Z,22.26
2023-04-16T09:31:21.712Z,22.28
2023-04-16T09:34:02.418Z,22.28
2023-04-16T09:36:31.712Z,22.31
2023-04-16T09:39:00.004Z,22.33
2023-04-16T09:41:29.427Z,22.35
2023-04-16T09:44:02.267Z,22.38
2023-04-16T09:46:42.862Z,22.41
2023-04-16T09:49:14.882Z,22.42
2023-04-16T09:51:43.941Z,22.44
2023-04-16T09:54:12.061Z,22.46
2023-04-16T09:56:46.627Z,22.50
2023-04-16T09:59:20.996Z,22.54
2023-04-16T10:01:50.074Z,22.55
2023-04-16T10:04:18.317Z,22.55
2023-04-16T10:07:03.556Z,22.58
2023-04-16T10:09:38.000Z,22.60
2023-04-16T10:12:06.848Z,22.63
2023-04-16T10:14:35.093Z,22.65
2023-04-16T10:17:04.189Z,22.69
2023-04-16T10:19:32.840Z,22.69
2023-04-16T10:22:01.605Z,22.74
2023-04-16T10:24:30.429Z,22.76
2023-04-16T10:26:58.736Z,22.79
2023-04-16T10:29:30.761Z,22.81
2023-04-16T10:31:58.933Z,22.83
2023-04-16T10:34:27.117Z,22.84
2023-04-16T10:36:55.489Z,22.85
2023-04-16T10:39:24.392Z,22.87
2023-04-16T10:42:07.779Z,22.92
2023-04-16T10:44:36.271Z,22.92
2023-04-16T10:47:11.362Z,22.93
2023-04-16T10:49:39.809Z,22.97
2023-04-16T10:52:12.705Z,23.01
2023-04-16T10:54:41.175Z,23.02
2023-04-16T11:07:34.603Z,23.16
2023-04-16T11:10:13.045Z,23.17
2023-04-16T11:12:41.106Z,23.19
2023-04-16T11:15:10.392Z,23.22
2023-04-16T11:17:46.064Z,23.22
2023-04-16T11:20:28.039Z,23.22
2023-04-16T11:22:57.449Z,23.23
2023-04-16T11:25:27.348Z,23.23
2023-04-16T11:27:55.427Z,23.24
2023-04-16T11:30:34.317Z,23.25
2023-04-16T11:33:05.893Z,23.26
2023-04-16T11:35:33.983Z,23.29
2023-04-16T11:38:02.463Z,23.30
2023-04-16T11:40:31.403Z,23.31
2023-04-16T11:43:04.105Z,23.32
2023-04-16T11:45:32.127Z,23.31
2023-04-16T11:48:00.301Z,23.35
2023-04-16T11:50:28.696Z,23.37
2023-04-16T11:52:57.981Z,23.34
2023-04-16T11:55:26.114Z,23.35
2023-04-16T11:57:54.202Z,23.39
2023-04-16T12:00:24.579Z,23.41
2023-04-16T12:02:54.118Z,23.43
2023-04-16T12:05:34.058Z,23.45
2023-04-16T12:10:38.631Z,23.47
2023-04-16T12:15:54.146Z,23.50
2023-04-16T12:18:23.863Z,23.51
2023-04-16T12:20:51.822Z,23.52
2023-04-16T12:23:30.110Z,23.53
2023-04-16T12:26:02.781Z,23.54
2023-04-16T12:28:33.488Z,23.53
2023-04-16T12:31:02.513Z,23.54
2023-04-16T12:36:20.123Z,23.54
2023-04-16T12:38:48.239Z,23.55
2023-04-16T12:41:17.169Z,23.56
2023-04-16T12:43:45.213Z,23.58
2023-04-16T12:46:13.329Z,23.58
2023-04-16T12:48:41.862Z,23.57
2023-04-16T12:51:09.951Z,23.58
2023-04-16T12:53:38.030Z,23.57
2023-04-16T12:56:06.596Z,23.57
2023-04-16T12:58:34.964Z,23.58
2023-04-16T13:01:02.938Z,23.59
2023-04-16T13:03:31.372Z,23.59
2023-04-16T13:05:59.700Z,23.59
2023-04-16T13:08:27.773Z,23.59
2023-04-16T13:10:55.950Z,23.59
2023-04-16T13:13:23.875Z,23.59
2023-04-16T13:15:52.126Z,23.59
2023-04-16T13:18:20.267Z,23.58
2023-04-16T13:20:48.431Z,23.56
2023-04-16T13:23:16.515Z,23.55
2023-04-16T13:25:44.784Z,23.55
2023-04-16T13:28:12.897Z,23.53
2023-04-16T13:30:41.334Z,23.52
2023-04-16T13:33:09.418Z,23.49
2023-04-16T13:35:37.490Z,23.47
2023-04-16T13:38:06.278Z,23.44
2023-04-16T13:40:34.726Z,23.41
2023-04-16T13:43:02.833Z,23.36
2023-04-16T13:45:31.105Z,23.32
2023-04-16T13:47:59.716Z,23.26
2023-04-16T13:50:28.167Z,23.22
2023-04-16T13:52:56.538Z,23.17
2023-04-16T13:55:24.831Z,23.12
2023-04-16T13:57:53.505Z,23.08
2023-04-16T14:00:21.988Z,23.03
2023-04-16T14:02:50.132Z,22.98
2023-04-16T14:05:19.686Z,22.93
2023-04-16T14:07:47.942Z,22.89
2023-04-16T14:10:16.226Z,22.85
2023-04-16T14:12:45.021Z,22.81
2023-04-16T14:15:14.940Z,22.77
2023-04-16T14:17:43.717Z,22.71
2023-04-16T14:20:13.020Z,22.67
2023-04-16T14:22:42.626Z,22.63
2023-04-16T14:25:10.900Z,22.58
2023-04-16T14:27:38.864Z,22.54
2023-04-16T14:30:08.172Z,22.49
2023-04-16T14:32:36.903Z,22.47
2023-04-16T14:35:05.849Z,22.46
2023-04-16T14:37:36.082Z,22.44
2023-04-16T14:40:08.604Z,22.41
2023-04-16T14:42:37.129Z,22.39
2023-04-16T14:45:06.826Z,22.35
2023-04-16T14:47:35.383Z,22.32
2023-04-16T14:50:03.830Z,22.30
2023-04-16T14:52:32.504Z,22.26
2023-04-16T14:55:00.665Z,22.25
2023-04-16T14:57:28.945Z,22.24
2023-04-16T14:59:57.084Z,22.22
2023-04-16T15:02:26.213Z,22.21
2023-04-16T15:04:54.690Z,22.19
2023-04-16T15:07:22.960Z,22.17
2023-04-16T15:09:51.244Z,22.17
2023-04-16T15:12:19.532Z,22.14
2023-04-16T15:14:47.685Z,22.14
2023-04-16T15:17:15.864Z,22.14
2023-04-16T15:19:43.827Z,22.12
2023-04-16T15:22:12.720Z,22.14
2023-04-16T15:24:40.908Z,22.13
2023-04-16T15:27:11.634Z,22.11
2023-04-16T15:29:40.227Z,22.11
2023-04-16T15:32:08.499Z,22.09
2023-04-16T15:34:36.585Z,22.07
2023-04-16T15:37:04.854Z,22.09
2023-04-16T15:39:33.023Z,22.07
2023-04-16T15:42:04.026Z,22.03
2023-04-16T15:44:33.572Z,22.01
2023-04-16T15:47:01.564Z,21.98
2023-04-16T15:49:29.709Z,21.95
2023-04-16T15:51:57.893Z,21.93
2023-04-16T15:54:26.102Z,21.92
2023-04-16T15:56:54.241Z,21.88
2023-04-16T15:59:22.312Z,21.87
2023-04-16T16:01:50.461Z,21.83
2023-04-16T16:04:18.892Z,21.80
2023-04-16T16:06:47.150Z,21.77
2023-04-16T16:09:15.412Z,21.76
2023-04-16T16:11:43.484Z,21.74
2023-04-16T16:14:11.855Z,21.71
2023-04-16T16:16:40.308Z,21.70
2023-04-16T16:19:08.613Z,21.67
2023-04-16T16:21:37.722Z,21.65
2023-04-16T16:24:05.992Z,21.61
2023-04-16T16:26:34.059Z,21.60
2023-04-16T16:29:02.157Z,21.63
2023-04-16T16:31:30.534Z,21.64
2023-04-16T16:33:58.704Z,21.65
2023-04-16T16:36:27.686Z,21.67
2023-04-16T16:38:55.659Z,21.69
2023-04-16T16:41:23.936Z,21.71
2023-04-16T16:43:56.006Z,21.72
2023-04-16T16:46:24.101Z,21.75
2023-04-16T16:48:52.142Z,21.76
2023-04-16T16:51:20.112Z,21.78
2023-04-16T16:53:48.187Z,21.79
2023-04-16T16:56:16.249Z,21.81
2023-04-16T16:58:44.350Z,21.82
2023-04-16T17:01:12.558Z,21.84
2023-04-16T17:03:41.231Z,21.85
2023-04-16T17:06:09.469Z,21.86
2023-04-16T17:08:37.541Z,21.87
2023-04-16T17:11:05.709Z,21.87
2023-04-16T17:13:34.807Z,21.89
2023-04-16T17:16:02.968Z,21.89
2023-04-16T17:18:31.256Z,21.89
2023-04-16T17:20:59.237Z,21.89
2023-04-16T17:23:27.496Z,21.90
2023-04-16T17:25:55.444Z,21.91
2023-04-16T17:28:23.450Z,21.90
2023-04-16T17:30:52.027Z,21.91
2023-04-16T17:33:20.670Z,21.91
2023-04-16T17:35:48.788Z,21.90
2023-04-16T17:38:16.746Z,21.91
2023-04-16T17:40:44.925Z,21.90
2023-04-16T17:43:13.201Z,21.90
2023-04-16T17:45:41.233Z,21.90
2023-04-16T17:48:09.516Z,21.89
2023-04-16T17:50:39.515Z,21.90
2023-04-16T17:53:11.120Z,21.89
2023-04-16T17:55:39.313Z,21.88
2023-04-16T17:58:07.367Z,21.88
2023-04-16T18:00:35.529Z,21.87
2023-04-16T18:03:03.888Z,21.86
2023-04-16T18:05:32.100Z,21.86
2023-04-16T18:08:00.157Z,21.84
2023-04-16T18:10:31.726Z,21.84
2023-04-16T18:13:01.222Z,21.85
2023-04-16T18:15:29.931Z,21.84
2023-04-16T18:17:58.099Z,21.82
2023-04-16T18:20:27.395Z,21.82
2023-04-16T18:22:56.181Z,21.81
2023-04-16T18:25:33.902Z,21.80
2023-04-16T18:28:04.065Z,21.78
2023-04-16T18:30:32.229Z,21.78
2023-04-16T18:33:26.334Z,21.77
2023-04-16T18:35:48.678Z,21.75
2023-04-16T18:38:16.867Z,21.75
2023-04-16T18:40:46.964Z,21.73
2023-04-16T18:43:15.041Z,21.72
2023-04-16T18:45:42.907Z,21.70
2023-04-16T18:48:11.401Z,21.68
2023-04-16T18:50:39.471Z,21.68
2023-04-16T18:53:07.530Z,21.67
2023-04-16T18:55:35.707Z,21.66
2023-04-16T18:58:03.880Z,21.66
2023-04-16T19:00:32.319Z,21.63
2023-04-16T19:03:00.658Z,21.61
2023-04-16T19:05:29.230Z,21.60
2023-04-16T19:07:57.233Z,21.60
2023-04-16T19:10:25.271Z,21.59
2023-04-16T19:12:53.440Z,21.57
2023-04-16T19:15:21.411Z,21.55
2023-04-16T19:17:49.408Z,21.54
2023-04-16T19:20:17.775Z,21.53
2023-04-16T19:22:46.145Z,21.51
2023-04-16T19:25:14.220Z,21.50
2023-04-16T19:27:42.297Z,21.48
2023-04-16T19:30:11.147Z,21.48
2023-04-16T19:32:39.386Z,21.46
2023-04-16T19:35:08.157Z,21.45
2023-04-16T19:37:36.317Z,21.45
2023-04-16T19:40:06.370Z,21.44
2023-04-16T19:42:34.505Z,21.41
2023-04-16T19:45:03.290Z,21.40
2023-04-16T19:47:31.291Z,21.39
2023-04-16T19:49:59.433Z,21.35
2023-04-16T19:52:27.723Z,21.37
2023-04-16T19:54:55.993Z,21.36
2023-04-16T19:57:24.066Z,21.34
2023-04-16T19:59:53.543Z,21.33
2023-04-16T20:02:23.303Z,21.32
2023-04-16T20:04:53.204Z,21.30
2023-04-16T20:07:21.157Z,21.29
2023-04-16T20:09:49.126Z,21.28
2023-04-16T20:12:18.745Z,21.26
2023-04-16T20:14:47.434Z,21.24
2023-04-16T20:17:19.749Z,21.22
2023-04-16T20:19:49.659Z,21.21
2023-04-16T20:22:18.924Z,21.20
2023-04-16T20:24:48.111Z,21.14
2023-04-16T20:27:17.211Z,21.17
2023-04-16T20:29:45.286Z,21.15
2023-04-16T20:32:13.451Z,21.13
2023-04-16T20:34:41.538Z,21.12
2023-04-16T20:37:09.587Z,21.09
2023-04-16T20:39:37.676Z,21.08
2023-04-16T20:42:10.139Z,21.06
2023-04-16T20:44:41.298Z,21.05
2023-04-16T20:47:09.861Z,21.03
2023-04-16T20:49:40.400Z,21.01
2023-04-16T20:52:08.477Z,20.99
2023-04-16T20:54:36.532Z,20.97
2023-04-16T20:57:05.071Z,20.93
2023-04-16T20:59:33.191Z,20.93
2023-04-16T21:02:01.352Z,20.93
2023-04-16T21:04:29.778Z,20.91
2023-04-16T21:06:57.983Z,20.92
2023-04-16T21:09:26.074Z,20.90
2023-04-16T21:11:54.179Z,20.89
2023-04-16T21:14:22.302Z,20.88
2023-04-16T21:16:50.188Z,20.87
2023-04-16T21:19:18.283Z,20.85
2023-04-16T21:21:46.873Z,20.82
2023-04-16T21:24:14.737Z,20.80
2023-04-16T21:26:42.659Z,20.79
2023-04-16T21:29:11.204Z,20.79
2023-04-16T21:31:39.631Z,20.79
2023-04-16T21:34:07.769Z,20.78
2023-04-16T21:36:36.018Z,20.76
2023-04-16T21:39:04.125Z,20.75
2023-04-16T21:41:32.279Z,20.75
2023-04-16T21:44:00.347Z,20.72
2023-04-16T21:46:28.947Z,20.71
2023-04-16T21:48:57.024Z,20.71
2023-04-16T21:51:29.035Z,20.69
2023-04-16T21:53:57.333Z,20.66
2023-04-16T21:56:26.102Z,20.66
2023-04-16T21:58:54.204Z,20.64
2023-04-16T22:01:22.298Z,20.64
2023-04-16T22:03:52.191Z,20.62
2023-04-16T22:06:20.708Z,20.60
2023-04-16T22:08:50.318Z,20.60
2023-04-16T22:11:18.438Z,20.59
2023-04-16T22:13:47.913Z,20.58
2023-04-16T22:16:16.328Z,20.58
2023-04-16T22:18:45.300Z,20.57
2023-04-16T22:21:13.284Z,20.55
2023-04-16T22:23:41.256Z,20.54
2023-04-16T22:26:09.435Z,20.53
2023-04-16T22:28:37.335Z,20.52
2023-04-16T22:31:05.699Z,20.52
2023-04-16T22:33:33.688Z,20.49
2023-04-16T22:36:01.723Z,20.49
2023-04-16T22:38:29.791Z,20.48
2023-04-16T22:40:57.967Z,20.49
2023-04-16T22:43:26.143Z,20.49
2023-04-16T22:46:05.028Z,20.41
2023-04-16T22:48:34.164Z,20.46
2023-04-16T22:51:02.844Z,20.45
2023-04-16T22:53:31.119Z,20.43
2023-04-16T22:55:59.399Z,20.43
2023-04-16T22:58:27.577Z,20.43
2023-04-16T23:00:57.742Z,20.42
2023-04-16T23:03:26.171Z,20.41
2023-04-16T23:05:54.556Z,20.40
2023-04-16T23:08:22.524Z,20.39
2023-04-16T23:10:50.596Z,20.40
2023-04-16T23:13:18.662Z,20.39
2023-04-16T23:15:47.539Z,20.37
2023-04-16T23:18:16.379Z,20.36
2023-04-16T23:20:44.625Z,20.34
2023-04-16T23:23:12.894Z,20.35
2023-04-16T23:25:41.624Z,20.33
2023-04-16T23:28:09.661Z,20.34
2023-04-16T23:30:37.641Z,20.33
2023-04-16T23:33:05.718Z,20.31
2023-04-16T23:35:33.766Z,20.31
2023-04-16T23:38:01.845Z,20.30
2023-04-16T23:40:30.317Z,20.28
2023-04-16T23:42:58.492Z,20.25
2023-04-16T23:45:26.640Z,20.25
2023-04-16T23:47:55.295Z,20.24
2023-04-16T23:50:23.262Z,20.24
2023-04-16T23:52:51.712Z,20.23
2023-04-16T23:55:19.774Z,20.23
2023-04-16T23:57:47.768Z,20.22
